Time;durP1;ratioP1;P1;durP2;ratioP2;P2;SDS_P1;SDS_P2;PMS_P1;PMS_P2;Temp;Humidity;BMP_temperature;BMP_pressure;BME280_temperature;BME280_humidity;BME280_pressure;Samples;Min_cycle;Max_cycle;Signal;HPM_P1;HPM_P2
2022/12/22 03:28:13;;;;;;;77.78;25.35;;;9.60;99.90;;;;;;6231861;22;20027;-78
2022/12/22 03:30:39;;;;;;;82.15;24.67;;;9.50;99.90;;;;;;6203903;22;20039;-76
2022/12/22 03:33:05;;;;;;;88.22;26.45;;;9.50;99.90;;;;;;6229431;22;20092;-81
2022/12/22 03:35:31;;;;;;;82.32;24.58;;;8.80;99.90;;;;;;6226619;22;20047;-77
2022/12/22 03:37:56;;;;;;;91.65;22.70;;;8.80;99.90;;;;;;6228414;22;20015;-79
2022/12/22 03:40:25;;;;;;;72.72;23.85;;;9.40;99.90;;;;;;6253830;22;20007;-77
2022/12/22 03:50:13;;;;;;;83.43;24.77;;;9.90;99.90;;;;;;6058907;23;20026;-82
2022/12/22 03:52:41;;;;;;;78.35;23.08;;;9.30;99.90;;;;;;6059047;23;20025;-79
2022/12/22 03:55:13;;;;;;;85.97;23.15;;;9.00;99.90;;;;;;6220698;23;20012;-78
2022/12/22 04:04:27;;;;;;;99.70;26.60;;;8.00;99.90;;;;;;6155139;23;20240;-78
2022/12/22 04:06:53;;;;;;;99.50;25.58;;;9.20;99.90;;;;;;6059393;23;20013;-76
2022/12/22 04:09:21;;;;;;;106.82;26.95;;;9.10;99.90;;;;;;6130024;23;20108;-78
2022/12/22 04:14:30;;;;;;;101.63;24.83;;;9.10;99.90;;;;;;6197965;23;20020;-78
2022/12/22 04:16:56;;;;;;;131.32;26.20;;;9.50;99.90;;;;;;6197082;22;20073;-76
2022/12/22 04:19:54;;;;;;;117.30;26.02;;;8.80;99.90;;;;;;6256261;22;20007;-79
2022/12/22 04:23:06;;;;;;;;;;;;;;;;;;;;;
2022/12/22 04:25:50;;;;;;;;;;;;;;;;;;;;;
2022/12/22 04:29:38;;;;;;;;;;;;;;;;;;;;;
2022/12/22 04:32:49;;;;;;;84.72;24.67;;;9.50;99.90;;;;;;6279162;22;20528;-77
2022/12/22 04:35:30;;;;;;;104.93;23.77;;;9.30;99.90;;;;;;6245939;22;20057;-78
2022/12/22 04:38:20;;;;;;;100.43;24.55;;;8.70;99.90;;;;;;6281333;22;20298;-81
2022/12/22 04:48:06;;;;;;;;;;;;;;;;;;;;;
2022/12/22 04:50:35;;;;;;;74.82;23.67;;;9.40;99.90;;;;;;6258379;22;20089;-75
2022/12/22 04:53:02;;;;;;;85.90;23.15;;;9.00;99.90;;;;;;6229716;22;20082;-76
2022/12/22 04:55:39;;;;;;;79.50;22.70;;;8.60;99.90;;;;;;6230170;22;20016;-76
2022/12/22 04:58:07;;;;;;;100.15;24.05;;;9.60;99.90;;;;;;6257442;22;20066;-79
2022/12/22 05:00:33;;;;;;;99.72;24.15;;;9.20;99.90;;;;;;6255851;22;20022;-78
2022/12/22 05:02:59;;;;;;;83.78;23.50;;;9.30;99.90;;;;;;6231237;22;20312;-80
2022/12/22 05:05:25;;;;;;;104.38;22.50;;;8.60;99.90;;;;;;6204557;22;20008;-77
2022/12/22 05:07:50;;;;;;;91.57;23.25;;;9.00;99.90;;;;;;6255683;22;20023;-79
2022/12/22 05:10:16;;;;;;;114.13;24.75;;;9.10;99.90;;;;;;6231651;22;20007;-77
2022/12/22 05:12:57;;;;;;;117.20;25.92;;;8.80;99.90;;;;;;6232245;22;20018;-77
2022/12/22 05:15:25;;;;;;;138.07;25.50;;;9.00;99.90;;;;;;6222484;22;20058;-79
2022/12/22 05:17:51;;;;;;;106.63;25.50;;;9.10;99.90;;;;;;6231599;22;20274;-79
2022/12/22 05:20:17;;;;;;;104.55;24.45;;;8.80;99.90;;;;;;6230248;22;20015;-77
2022/12/22 05:22:43;;;;;;;93.00;23.85;;;9.20;99.90;;;;;;6256669;22;20468;-76
2022/12/22 05:25:09;;;;;;;132.43;27.17;;;9.10;99.90;;;;;;6257064;22;20111;-79
2022/12/22 05:27:35;;;;;;;106.93;27.02;;;9.00;99.90;;;;;;6206116;22;20019;-77
2022/12/22 05:30:00;;;;;;;125.22;25.65;;;8.70;99.90;;;;;;6231095;22;20011;-77
2022/12/22 05:32:26;;;;;;;111.70;25.88;;;9.20;99.90;;;;;;6232016;22;20225;-76
2022/12/22 05:34:52;;;;;;;103.30;24.13;;;9.00;99.90;;;;;;6230874;22;20007;-81
2022/12/22 05:37:18;;;;;;;103.10;23.90;;;9.20;99.90;;;;;;6206085;22;20019;-78
2022/12/22 05:39:43;;;;;;;89.82;22.23;;;8.60;99.90;;;;;;6230959;22;20183;-79
2022/12/22 05:42:09;;;;;;;87.18;23.30;;;9.00;99.90;;;;;;6206616;22;20008;-81
2022/12/22 05:44:35;;;;;;;85.13;24.10;;;8.90;99.90;;;;;;6231219;22;20016;-80
2022/12/22 05:47:01;;;;;;;86.93;24.63;;;9.20;99.90;;;;;;6205951;22;20011;-78
2022/12/22 05:49:26;;;;;;;83.32;23.42;;;8.70;99.90;;;;;;6257136;22;20019;-81
2022/12/22 05:51:55;;;;;;;78.60;24.05;;;8.60;99.90;;;;;;6211561;22;20109;-80
2022/12/22 05:54:21;;;;;;;91.57;23.02;;;8.60;99.90;;;;;;6262983;22;20178;-78
2022/12/22 05:56:46;;;;;;;67.90;21.73;;;8.90;99.90;;;;;;6262671;22;20071;-79
2022/12/22 05:59:12;;;;;;;75.78;23.20;;;8.90;99.90;;;;;;6262116;22;20361;-79
2022/12/22 06:01:38;;;;;;;68.47;20.52;;;8.90;99.90;;;;;;6261411;22;20093;-78
2022/12/22 06:04:04;;;;;;;71.22;20.88;;;8.60;99.90;;;;;;6236232;22;20015;-77
2022/12/22 06:06:29;;;;;;;62.90;20.08;;;8.70;99.90;;;;;;6235780;22;20026;-81
2022/12/22 06:08:55;;;;;;;60.35;18.83;;;8.50;99.90;;;;;;6236082;22;20236;-77
2022/12/22 06:11:21;;;;;;;53.22;18.27;;;8.60;99.90;;;;;;6261629;22;20015;-81
2022/12/22 06:13:50;;;;;;;54.20;18.02;;;8.90;99.90;;;;;;6260463;22;20018;-80
2022/12/22 06:16:21;;;;;;;56.35;18.75;;;10.70;99.90;;;;;;6210464;22;20067;-82
2022/12/22 06:18:47;;;;;;;53.03;20.15;;;8.50;99.90;;;;;;6261852;22;20011;-79
2022/12/22 06:21:30;;;;;;;48.15;17.33;;;7.30;99.90;;;;;;6210751;22;20015;-79
2022/12/22 06:23:58;;;;;;;47.38;16.33;;;8.70;99.90;;;;;;6235515;22;20007;-80
2022/12/22 06:26:52;;;;;;;47.58;16.25;;;7.50;99.90;;;;;;6275268;22;20015;-81
2022/12/22 06:29:17;;;;;;;52.55;17.38;;;8.40;99.90;;;;;;6261881;22;20301;-81
2022/12/22 06:31:46;;;;;;;46.58;17.38;;;8.00;99.90;;;;;;6261453;22;20018;-77
2022/12/22 06:34:18;;;;;;;47.45;17.48;;;8.40;99.90;;;;;;6234757;22;20019;-80
2022/12/22 06:36:49;;;;;;;47.70;17.70;;;7.70;99.90;;;;;;6259235;22;20030;-81
2022/12/22 06:39:18;;;;;;;52.65;17.00;;;8.30;99.90;;;;;;6261479;22;20319;-79
2022/12/22 06:44:31;;;;;;;44.45;16.00;;;7.90;99.90;;;;;;6285563;22;20205;-78
2022/12/22 06:46:57;;;;;;;46.35;15.60;;;7.90;99.90;;;;;;6287168;22;20038;-75
2022/12/22 06:49:28;;;;;;;48.88;16.98;;;7.50;99.90;;;;;;6285881;22;20027;-76
2022/12/22 06:52:04;;;;;;;;;;;;;;;;;;;;;
2022/12/22 06:54:30;;;;;;;55.83;16.90;;;7.30;99.90;;;;;;6286196;22;20046;-78
2022/12/22 06:56:55;;;;;;;50.03;16.85;;;8.00;99.90;;;;;;6261588;22;20011;-77
2022/12/22 06:59:21;;;;;;;57.42;17.33;;;7.30;99.90;;;;;;6261084;22;20014;-79
2022/12/22 07:01:47;;;;;;;68.70;18.85;;;7.50;99.90;;;;;;6236705;22;20007;-78
2022/12/22 07:04:18;;;;;;;56.25;16.73;;;7.20;99.90;;;;;;6236249;22;20043;-77
2022/12/22 07:06:44;;;;;;;63.60;19.02;;;7.10;99.90;;;;;;6260949;22;20060;-80
2022/12/22 07:09:09;;;;;;;72.25;19.58;;;7.30;99.90;;;;;;6287367;22;20082;-77
2022/12/22 07:11:40;;;;;;;80.80;19.60;;;7.50;99.90;;;;;;6260972;22;20014;-79
2022/12/22 07:14:19;;;;;;;76.95;19.13;;;6.80;99.90;;;;;;6238065;22;20015;-78
2022/12/22 07:17:05;;;;;;;73.25;18.58;;;7.00;99.90;;;;;;6234781;22;20011;-80
2022/12/22 07:22:20;;;;;;;98.05;20.23;;;6.90;99.90;;;;;;6265346;22;20038;-78
2022/12/22 07:24:46;;;;;;;131.00;23.00;;;7.30;99.90;;;;;;6285810;22;20007;-79
2022/12/22 07:27:11;;;;;;;81.22;20.85;;;7.50;99.90;;;;;;6210963;22;20034;-77
2022/12/22 07:29:39;;;;;;;78.97;22.95;;;7.20;99.90;;;;;;6260603;22;20082;-76
2022/12/22 07:32:08;;;;;;;99.72;23.95;;;7.20;99.90;;;;;;6286775;22;20309;-77
2022/12/22 07:34:33;;;;;;;84.57;20.67;;;7.30;99.90;;;;;;6234864;22;20019;-78
2022/12/22 07:37:02;;;;;;;85.82;19.92;;;7.70;99.90;;;;;;6235694;22;20011;-77
2022/12/22 07:39:28;;;;;;;80.45;24.98;;;7.40;99.90;;;;;;6261296;22;20231;-78
2022/12/22 07:45:05;;;;;;;65.60;17.25;;;8.00;99.90;;;;;;6283638;22;20065;-79
2022/12/22 07:47:40;;;;;;;66.28;17.98;;;7.00;99.90;;;;;;6261798;22;20015;-79
2022/12/22 07:50:27;;;;;;;54.08;16.92;;;7.30;99.90;;;;;;6285295;22;20076;-78
2022/12/22 07:53:03;;;;;;;66.82;17.58;;;7.40;99.90;;;;;;6261525;22;20084;-79
2022/12/22 07:55:35;;;;;;;53.17;17.40;;;6.80;99.90;;;;;;6260598;22;20015;-79
2022/12/22 07:58:00;;;;;;;62.85;19.90;;;6.70;99.90;;;;;;6285552;22;20037;-78
2022/12/22 08:00:27;;;;;;;66.10;17.15;;;7.20;99.90;;;;;;6260129;22;20349;-78
2022/12/22 08:03:05;;;;;;;84.28;20.73;;;6.70;99.90;;;;;;6235620;22;20007;-78
2022/12/22 08:05:55;;;;;;;69.55;19.08;;;7.00;99.90;;;;;;6258174;22;20104;-77
2022/12/22 08:09:10;;;;;;;73.38;18.55;;;7.10;99.90;;;;;;6126401;23;20061;-78
2022/12/22 08:11:36;;;;;;;56.38;16.95;;;7.80;99.90;;;;;;6104418;23;20041;-77
2022/12/22 08:14:02;;;;;;;62.10;16.60;;;6.50;99.90;;;;;;6162399;23;20058;-77
2022/12/22 08:16:28;;;;;;;63.40;17.67;;;6.70;99.90;;;;;;6197886;23;20031;-77
2022/12/22 08:18:54;;;;;;;72.55;17.65;;;6.80;99.90;;;;;;6222785;23;20180;-78
2022/12/22 08:21:22;;;;;;;56.38;16.95;;;6.50;99.90;;;;;;6195013;23;20016;-77
2022/12/22 08:24:06;;;;;;;60.88;16.48;;;7.10;99.90;;;;;;6197253;23;20016;-75
2022/12/22 08:26:43;;;;;;;69.25;17.77;;;5.60;99.90;;;;;;6172823;23;20012;-77
2022/12/22 08:29:17;;;;;;;74.10;16.30;;;7.50;99.90;;;;;;6199368;23;20023;-78
2022/12/22 08:31:45;;;;;;;74.28;16.25;;;6.70;99.90;;;;;;6196278;23;20019;-78
2022/12/22 08:34:18;;;;;;;81.78;15.88;;;7.30;99.90;;;;;;6198756;23;20012;-77
2022/12/22 08:36:51;;;;;;;71.28;14.88;;;7.10;99.90;;;;;;6224126;23;20185;-77
2022/12/22 08:39:19;;;;;;;72.70;15.95;;;7.30;99.90;;;;;;6229178;22;20140;-78
2022/12/22 08:41:51;;;;;;;64.55;16.30;;;6.90;99.90;;;;;;6286360;22;20038;-77
2022/12/22 08:44:51;;;;;;;;;;;;;;;;;;;;;
2022/12/22 08:47:57;;;;;;;71.53;16.55;;;6.80;99.90;;;;;;6285073;22;20015;-77
2022/12/22 08:50:29;;;;;;;63.50;18.03;;;7.20;99.90;;;;;;6236749;22;20043;-79
2022/12/22 08:56:57;;;;;;;75.68;17.38;;;6.60;99.90;;;;;;6241024;22;20082;-77
2022/12/22 08:59:31;;;;;;;46.67;13.35;;;5.70;99.90;;;;;;6283195;22;20067;-76
2022/12/22 09:02:30;;;;;;;59.45;13.77;;;7.20;99.90;;;;;;6262210;22;20022;-77
2022/12/22 09:05:42;;;;;;;69.53;12.90;;;5.90;99.90;;;;;;6263397;22;20043;-74
2022/12/22 09:11:34;;;;;;;46.92;13.25;;;6.90;99.90;;;;;;6244034;22;20045;-77
2022/12/22 09:14:01;;;;;;;74.97;12.95;;;7.20;99.90;;;;;;6236197;22;20287;-75
2022/12/22 09:16:46;;;;;;;56.33;15.70;;;6.70;99.90;;;;;;6287004;22;20015;-69
2022/12/22 09:19:11;;;;;;;54.88;12.00;;;7.40;99.90;;;;;;6286610;22;20007;-80
2022/12/22 09:21:37;;;;;;;61.55;11.95;;;7.20;99.90;;;;;;6260660;22;20018;-78
2022/12/22 09:28:05;;;;;;;44.58;9.65;;;5.70;99.90;;;;;;6301757;22;20030;-76
2022/12/22 09:30:37;;;;;;;53.25;10.45;;;7.10;99.90;;;;;;6263692;22;20011;-77
2022/12/22 09:33:04;;;;;;;50.40;10.70;;;6.90;99.90;;;;;;6236929;22;20012;-76
2022/12/22 09:35:30;;;;;;;71.05;12.05;;;7.50;99.90;;;;;;6237480;22;20236;-76
2022/12/22 09:37:55;;;;;;;57.88;12.23;;;7.40;99.90;;;;;;6211147;22;20015;-76
2022/12/22 09:41:12;;;;;;;72.30;12.43;;;7.20;99.90;;;;;;6235026;22;20223;-78
2022/12/22 09:43:38;;;;;;;48.40;10.90;;;7.60;99.90;;;;;;6193124;23;20055;-76
2022/12/22 09:46:04;;;;;;;49.72;11.85;;;7.00;99.90;;;;;;6169459;23;20024;-75
2022/12/22 09:48:37;;;;;;;63.90;13.48;;;7.60;99.90;;;;;;6250366;22;20146;-75
2022/12/22 09:51:04;;;;;;;41.10;11.52;;;7.30;99.90;;;;;;6235066;22;20073;-79
2022/12/22 09:53:30;;;;;;;45.90;11.63;;;7.70;99.90;;;;;;6261342;22;20015;-77
2022/12/22 09:55:56;;;;;;;39.45;11.02;;;7.70;99.90;;;;;;6285216;22;20011;-75
2022/12/22 09:58:25;;;;;;;32.50;10.55;;;7.70;99.90;;;;;;6236258;22;20015;-76
2022/12/22 10:01:12;;;;;;;34.33;10.68;;;7.30;99.90;;;;;;6260114;22;20026;-75
2022/12/22 10:07:37;;;;;;;31.90;10.13;;;8.10;99.90;;;;;;6313099;22;20029;-78
2022/12/22 10:10:26;;;;;;;29.63;9.70;;;7.50;99.90;;;;;;6286202;22;20325;-77
2022/12/22 10:12:58;;;;;;;25.45;10.88;;;7.40;99.90;;;;;;6259198;22;20326;-76
2022/12/22 10:15:25;;;;;;;28.17;11.07;;;7.60;99.90;;;;;;6285702;22;20011;-77
2022/12/22 10:17:52;;;;;;;25.15;9.75;;;7.50;99.90;;;;;;6284921;22;20034;-77
2022/12/22 10:20:18;;;;;;;31.45;10.02;;;7.50;99.90;;;;;;6236820;22;20070;-79
2022/12/22 10:26:21;;;;;;;23.33;8.73;;;8.10;99.90;;;;;;6205168;23;20031;-75
2022/12/22 10:28:51;;;;;;;22.85;9.02;;;7.70;99.90;;;;;;6193312;23;20020;-77
2022/12/22 10:31:22;;;;;;;17.48;7.97;;;8.30;99.90;;;;;;6260880;22;20038;-77
2022/12/22 10:38:14;;;;;;;16.42;7.85;;;8.10;99.90;;;;;;6133356;23;20068;-75
2022/12/22 10:40:45;;;;;;;17.30;7.70;;;8.40;99.90;;;;;;6103348;23;20010;-75
2022/12/22 10:43:19;;;;;;;20.58;7.82;;;8.30;99.90;;;;;;6106639;23;20092;-77
2022/12/22 10:45:49;;;;;;;18.45;8.13;;;8.50;99.90;;;;;;6212367;22;20019;-77
2022/12/22 10:48:15;;;;;;;17.65;7.47;;;8.40;99.90;;;;;;6283257;22;20031;-76
2022/12/22 10:50:46;;;;;;;14.98;8.07;;;9.10;99.90;;;;;;6257649;22;20362;-75
2022/12/22 10:53:13;;;;;;;19.25;7.75;;;8.00;99.90;;;;;;6259550;22;20046;-77
2022/12/22 10:55:38;;;;;;;19.65;7.93;;;8.40;99.90;;;;;;6258976;22;20022;-76
2022/12/22 10:58:15;;;;;;;18.70;7.97;;;8.60;99.90;;;;;;6260568;22;20015;-77
2022/12/22 11:00:43;;;;;;;19.75;8.13;;;8.70;99.90;;;;;;6284389;22;20111;-76
2022/12/22 11:03:14;;;;;;;19.60;7.93;;;8.80;99.90;;;;;;6286296;22;20044;-78
2022/12/22 11:05:43;;;;;;;12.70;7.20;;;9.00;99.90;;;;;;6234686;22;20019;-76
2022/12/22 11:08:19;;;;;;;15.35;7.35;;;9.00;99.90;;;;;;6259625;22;20259;-78
2022/12/22 11:10:58;;;;;;;15.25;7.07;;;9.00;99.90;;;;;;6284701;22;20041;-76
2022/12/22 11:25:03;;;;;;;11.65;5.80;;;8.90;99.90;;;;;;6004596;23;20057;-73
2022/12/22 11:27:38;;;;;;;16.88;6.72;;;10.00;99.90;;;;;;6139669;22;20016;-77
2022/12/22 11:30:18;;;;;;;14.20;6.10;;;10.20;99.90;;;;;;6260480;22;20015;-75
2022/12/22 11:32:51;;;;;;;13.50;5.85;;;10.10;99.90;;;;;;6259313;22;20007;-78
2022/12/22 11:35:37;;;;;;;17.23;6.10;;;10.10;99.90;;;;;;6247836;23;20014;-76
2022/12/22 11:38:06;;;;;;;9.35;5.25;;;9.70;99.90;;;;;;6198198;23;20016;-77
2022/12/22 11:40:47;;;;;;;9.73;5.68;;;9.90;99.90;;;;;;6198679;23;20194;-78
2022/12/22 11:43:38;;;;;;;15.30;5.20;;;10.00;99.90;;;;;;6198133;23;20345;-75
2022/12/22 11:46:34;;;;;;;9.65;5.18;;;9.80;99.90;;;;;;6222573;23;20016;-77
2022/12/22 11:49:21;;;;;;;14.93;4.95;;;9.50;99.90;;;;;;6196682;23;20043;-79
2022/12/22 11:52:05;;;;;;;10.88;5.20;;;9.70;99.90;;;;;;6197288;23;20019;-79
2022/12/22 11:54:45;;;;;;;10.75;4.78;;;9.50;99.90;;;;;;6197884;23;20122;-78
2022/12/22 11:57:11;;;;;;;12.73;4.82;;;9.60;99.90;;;;;;6222942;23;20086;-79
2022/12/22 11:59:48;;;;;;;13.55;5.35;;;9.40;99.90;;;;;;6198419;23;20258;-79
2022/12/22 12:02:41;;;;;;;13.18;4.50;;;10.30;99.90;;;;;;6198493;23;20062;-78
2022/12/22 12:05:37;;;;;;;11.45;4.88;;;10.20;99.90;;;;;;6222343;23;20015;-77
2022/12/22 12:12:40;;;;;;;9.73;3.80;;;10.30;99.90;;;;;;6157397;23;20017;-78
2022/12/22 12:15:51;;;;;;;;;;;;;;;;;;;;;
2022/12/22 12:19:46;;;;;;;;;;;;;;;;;;;;;
2022/12/22 12:23:10;;;;;;;;;;;;;;;;;;;;;
2022/12/22 12:25:39;;;;;;;10.82;4.47;;;8.90;99.90;;;;;;6074292;23;20364;-77
2022/12/22 12:28:28;;;;;;;15.10;4.70;;;8.90;99.90;;;;;;6183091;23;20456;-76
2022/12/22 12:30:59;;;;;;;9.02;4.47;;;8.90;99.90;;;;;;6218228;23;20009;-77
2022/12/22 12:33:50;;;;;;;13.52;4.47;;;8.80;99.90;;;;;;6227772;22;20079;-78
2022/12/22 12:36:38;;;;;;;11.70;4.20;;;8.50;99.90;;;;;;6259048;22;20019;-79
2022/12/22 12:39:29;;;;;;;11.15;4.32;;;8.40;99.90;;;;;;6288294;22;20015;-79
2022/12/22 12:42:22;;;;;;;12.32;4.70;;;8.60;99.90;;;;;;6259679;22;20007;-78
2022/12/22 12:44:51;;;;;;;13.13;4.65;;;8.40;99.90;;;;;;6284344;22;20015;-77
2022/12/22 12:47:24;;;;;;;15.18;4.28;;;8.70;99.90;;;;;;6259460;22;20011;-79
2022/12/22 12:50:32;;;;;;;12.77;4.75;;;8.70;99.90;;;;;;6283979;22;20011;-79
2022/12/22 12:53:09;;;;;;;13.77;4.68;;;8.60;99.90;;;;;;6270228;22;20032;-78
2022/12/22 12:55:38;;;;;;;10.38;4.68;;;8.30;99.90;;;;;;6228314;22;20065;-78
2022/12/22 13:01:56;;;;;;;11.52;4.45;;;8.40;99.90;;;;;;6281510;22;20257;-80
2022/12/22 13:05:03;;;;;;;13.93;5.00;;;8.40;99.90;;;;;;6255019;22;20061;-77
2022/12/22 13:08:13;;;;;;;16.45;4.32;;;7.40;99.90;;;;;;6255117;22;20019;-78
2022/12/22 13:10:52;;;;;;;13.23;4.93;;;8.70;99.90;;;;;;6162803;22;20301;-79
2022/12/22 13:13:24;;;;;;;11.15;4.10;;;8.50;99.90;;;;;;6229884;22;20012;-79
2022/12/22 13:16:14;;;;;;;16.95;3.83;;;8.30;99.90;;;;;;6255098;22;20505;-80
2022/12/22 13:18:45;;;;;;;12.82;4.10;;;8.70;99.90;;;;;;6231599;22;20331;-78
2022/12/22 13:21:15;;;;;;;9.38;3.67;;;8.50;99.90;;;;;;6208333;22;20012;-78
2022/12/22 13:24:11;;;;;;;14.27;4.25;;;8.70;99.90;;;;;;6232157;22;20023;-78
2022/12/22 13:26:39;;;;;;;10.30;3.58;;;8.80;99.90;;;;;;6247279;22;20012;-77
2022/12/22 13:29:27;;;;;;;8.30;3.60;;;8.70;99.90;;;;;;6256117;22;20023;-77
2022/12/22 13:32:15;;;;;;;15.05;3.03;;;8.60;99.90;;;;;;6256569;22;20115;-77
2022/12/22 13:34:51;;;;;;;8.98;3.30;;;8.50;99.90;;;;;;6256194;22;20050;-77
2022/12/22 13:37:17;;;;;;;11.15;3.15;;;8.70;99.90;;;;;;6231817;22;20071;-77
2022/12/22 13:40:05;;;;;;;13.85;3.80;;;8.90;99.90;;;;;;6256055;22;20008;-78
2022/12/22 13:42:38;;;;;;;10.02;3.75;;;8.60;99.90;;;;;;6231970;22;20015;-79
2022/12/22 13:45:57;;;;;;;11.52;3.42;;;8.90;99.90;;;;;;6256034;22;20044;-78
2022/12/22 13:48:29;;;;;;;10.70;3.80;;;8.80;99.90;;;;;;6157911;22;20015;-78
2022/12/22 13:51:03;;;;;;;10.65;3.53;;;8.90;99.90;;;;;;6235430;22;20346;-79
2022/12/22 13:53:41;;;;;;;10.98;3.58;;;8.90;99.90;;;;;;6287332;22;20430;-78
2022/12/22 13:56:11;;;;;;;;;;;8.80;99.90;;;;;;6261614;22;20023;-77
2022/12/22 13:58:40;;;;;;;13.27;3.20;;;8.50;99.90;;;;;;6261547;22;19907;-78
2022/12/22 14:01:08;;;;;;;11.75;3.72;;;8.80;99.90;;;;;;6259999;22;20015;-78
2022/12/22 14:03:48;;;;;;;14.57;3.70;;;8.90;99.90;;;;;;6260693;22;20015;-78
2022/12/22 14:06:33;;;;;;;9.18;3.40;;;8.80;99.90;;;;;;6285893;22;20030;-77
2022/12/22 14:10:00;;;;;;;9.60;3.78;;;8.60;99.90;;;;;;6260186;22;20011;-77
2022/12/22 14:12:34;;;;;;;12.10;3.53;;;8.80;99.90;;;;;;6121488;23;20036;-79
2022/12/22 14:15:16;;;;;;;8.18;3.35;;;8.70;99.90;;;;;;6134276;23;20310;-78
2022/12/22 14:17:42;;;;;;;10.90;3.95;;;8.90;99.90;;;;;;6236058;22;20325;-79
2022/12/22 14:25:26;;;;;;;;;;;;;;;;;;;;;
2022/12/22 14:31:22;;;;;;;11.75;4.20;;;7.80;99.90;;;;;;6312982;22;20002;-77
2022/12/22 14:34:04;;;;;;;9.88;4.22;;;8.70;99.90;;;;;;6261004;22;20011;-78
2022/12/22 14:36:40;;;;;;;9.50;4.47;;;8.70;99.90;;;;;;6260495;22;20071;-78
2022/12/22 14:39:25;;;;;;;10.60;4.35;;;8.70;99.90;;;;;;6235529;22;20007;-78
2022/12/22 14:41:56;;;;;;;11.43;3.78;;;9.20;99.90;;;;;;6286767;22;20068;-72
2022/12/22 14:44:33;;;;;;;8.75;3.85;;;8.90;99.90;;;;;;6261397;22;20014;-78
2022/12/22 14:47:11;;;;;;;8.85;3.70;;;8.60;99.90;;;;;;6260262;22;20011;-78
2022/12/22 14:54:27;;;;;;;7.75;3.13;;;8.60;99.90;;;;;;6067683;23;20038;-78
2022/12/22 14:57:34;;;;;;;6.60;3.00;;;9.10;99.90;;;;;;6094519;23;20014;-78
2022/12/22 15:07:28;;;;;;;14.90;2.40;;;8.30;99.90;;;;;;6115856;23;20022;-75
2022/12/22 15:10:10;;;;;;;10.38;2.50;;;8.60;99.90;;;;;;6066793;23;20013;-77
2022/12/22 15:12:35;;;;;;;9.45;2.10;;;7.00;99.90;;;;;;6210168;22;20399;-78
2022/12/22 15:15:21;;;;;;;4.30;2.20;;;8.20;99.90;;;;;;6229214;22;20011;-77
2022/12/22 15:17:53;;;;;;;6.07;2.72;;;8.20;99.90;;;;;;6229097;22;20026;-77
2022/12/22 15:20:24;;;;;;;7.10;3.00;;;8.10;99.90;;;;;;6253894;22;20059;-78
2022/12/22 15:22:58;;;;;;;8.02;2.33;;;8.40;99.90;;;;;;6228785;22;20016;-78
2022/12/22 15:25:24;;;;;;;11.43;3.03;;;8.30;99.90;;;;;;6206107;22;20053;-79
2022/12/22 15:27:53;;;;;;;7.55;4.03;;;8.20;99.90;;;;;;6229759;22;20221;-79
2022/12/22 15:30:24;;;;;;;4.57;2.80;;;8.20;99.90;;;;;;6217645;22;20018;-79
2022/12/22 15:32:59;;;;;;;7.13;3.05;;;8.20;99.90;;;;;;6254765;22;20199;-80
2022/12/22 15:35:43;;;;;;;10.95;3.50;;;8.90;99.90;;;;;;6229423;22;20183;-79
2022/12/22 15:46:20;;;;;;;11.15;4.07;;;6.90;99.90;;;;;;6099288;23;20050;-79
2022/12/22 15:52:22;;;;;;;10.18;4.40;;;8.40;99.90;;;;;;6034396;23;20081;-78
2022/12/22 15:54:57;;;;;;;7.70;4.57;;;8.30;99.90;;;;;;6051100;23;20032;-79
2022/12/22 15:58:16;;;;;;;7.15;4.38;;;8.40;99.90;;;;;;6106551;23;20048;-78
2022/12/22 16:00:41;;;;;;;10.10;4.55;;;8.80;99.90;;;;;;6138044;23;20358;-79
2022/12/22 16:03:15;;;;;;;8.52;4.00;;;8.50;99.90;;;;;;6161540;23;20048;-77
2022/12/22 16:06:55;;;;;;;;;;;;;;;;;;;;;
2022/12/22 16:09:47;;;;;;;11.23;4.55;;;8.10;99.90;;;;;;6058105;23;20061;-79
2022/12/22 16:12:17;;;;;;;10.57;4.57;;;8.90;99.90;;;;;;6047129;23;20372;-77
2022/12/22 16:14:53;;;;;;;9.75;5.15;;;8.10;99.90;;;;;;6046943;23;20086;-79
2022/12/22 16:27:54;;;;;;;12.00;4.13;;;8.10;99.90;;;;;;6101364;23;20482;-78
2022/12/22 16:30:23;;;;;;;14.38;4.75;;;8.00;99.90;;;;;;6251815;22;20007;-79
2022/12/22 16:33:19;;;;;;;5.15;3.75;;;8.20;99.90;;;;;;6254707;22;20007;-77
2022/12/22 16:35:44;;;;;;;;;;;8.00;99.90;;;;;;6247657;22;20015;-75
2022/12/22 16:38:10;;;;;;;7.22;4.25;;;7.00;99.90;;;;;;6229695;22;19921;-77
2022/12/22 16:40:49;;;;;;;9.60;4.47;;;8.10;99.90;;;;;;6205056;22;20015;-77
2022/12/22 16:43:40;;;;;;;9.80;5.22;;;8.00;99.90;;;;;;6232501;22;20019;-76
2022/12/22 16:46:16;;;;;;;8.05;5.65;;;7.90;99.90;;;;;;6204353;22;20020;-75
2022/12/22 16:48:54;;;;;;;11.18;5.80;;;8.00;99.90;;;;;;6255768;22;20016;-73
2022/12/22 16:51:32;;;;;;;13.30;6.28;;;7.00;99.90;;;;;;6263861;22;20019;-75
2022/12/22 16:53:58;;;;;;;13.02;6.93;;;7.80;99.90;;;;;;6288125;22;20049;-76
2022/12/22 16:56:29;;;;;;;12.57;6.03;;;8.00;99.90;;;;;;6237457;22;20023;-78
2022/12/22 16:58:54;;;;;;;12.27;7.40;;;7.80;99.90;;;;;;6261601;22;20060;-76
2022/12/22 17:01:30;;;;;;;11.75;7.63;;;8.00;99.90;;;;;;6262548;22;20112;-78
2022/12/22 17:04:06;;;;;;;11.35;7.80;;;7.90;99.90;;;;;;6288188;22;20369;-75
2022/12/22 17:06:48;;;;;;;17.83;8.27;;;7.80;99.90;;;;;;6288123;22;20257;-76
2022/12/22 17:09:36;;;;;;;;;;;;;;;;;;;;;
2022/12/22 17:16:03;;;;;;;;;;;;;;;;;;;;;
2022/12/22 17:19:14;;;;;;;18.08;10.32;;;6.80;99.90;;;;;;6265640;22;20007;-78
2022/12/22 17:21:40;;;;;;;17.77;10.15;;;7.70;99.90;;;;;;6164256;23;20064;-78
2022/12/22 17:24:13;;;;;;;18.20;10.70;;;7.70;99.90;;;;;;6140113;23;20016;-75
2022/12/22 17:27:04;;;;;;;21.08;11.93;;;8.90;99.90;;;;;;6052157;23;20070;-76
2022/12/22 17:39:57;;;;;;;25.15;13.90;;;8.60;99.90;;;;;;6162008;23;20032;-77
2022/12/22 17:43:11;;;;;;;24.88;14.93;;;7.80;99.90;;;;;;6164697;23;20016;-77
2022/12/22 17:46:01;;;;;;;;;;;;;;;;;;;;;
2022/12/22 17:49:18;;;;;;;28.15;16.45;;;7.90;99.90;;;;;;6042421;23;20043;-77
2022/12/22 17:51:47;;;;;;;28.30;17.13;;;9.40;99.90;;;;;;6068397;23;20021;-78
2022/12/22 17:55:07;;;;;;;31.73;18.75;;;7.90;99.90;;;;;;6134795;23;20018;-78
2022/12/22 17:57:34;;;;;;;30.38;18.30;;;7.00;99.90;;;;;;6079777;23;20017;-78
2022/12/22 18:00:14;;;;;;;28.50;18.40;;;7.90;99.90;;;;;;6183693;22;20034;-77
2022/12/22 18:02:40;;;;;;;28.48;16.63;;;6.20;99.90;;;;;;6287238;22;20053;-77
2022/12/22 18:05:33;;;;;;;59.10;35.00;;;7.60;99.90;;;;;;6235576;22;20015;-77
2022/12/22 18:07:59;;;;;;;34.95;20.23;;;7.80;99.90;;;;;;6261101;22;20245;-77
2022/12/22 18:11:02;;;;;;;32.95;17.67;;;7.70;99.90;;;;;;6259217;22;20089;-77
2022/12/22 18:13:34;;;;;;;29.92;17.08;;;9.20;99.90;;;;;;6251233;22;20011;-77
2022/12/22 18:16:04;;;;;;;27.80;17.08;;;7.50;99.90;;;;;;6260438;22;20202;-77
2022/12/22 18:18:33;;;;;;;30.05;17.77;;;7.50;99.90;;;;;;6212040;22;20097;-76
2022/12/22 18:21:05;;;;;;;29.38;16.40;;;6.70;99.90;;;;;;6261570;22;20068;-77
2022/12/22 18:27:23;;;;;;;29.27;15.68;;;6.50;99.90;;;;;;6276964;22;20034;-76
2022/12/22 18:33:55;;;;;;;26.58;16.25;;;7.50;99.90;;;;;;6143467;23;20262;-79
2022/12/22 18:36:30;;;;;;;30.52;16.95;;;7.70;99.90;;;;;;6180392;22;20073;-77
2022/12/22 18:38:57;;;;;;;34.40;17.35;;;7.30;99.90;;;;;;6261245;22;20527;-77
2022/12/22 18:41:33;;;;;;;34.13;17.98;;;6.90;99.90;;;;;;6285810;22;20019;-77
2022/12/22 18:43:59;;;;;;;33.80;17.55;;;7.60;99.90;;;;;;6262358;22;20163;-76
2022/12/22 18:46:27;;;;;;;33.55;17.85;;;7.30;99.90;;;;;;6258864;22;20078;-76
2022/12/22 18:48:53;;;;;;;33.10;18.67;;;7.30;99.90;;;;;;6259048;22;20398;-76
2022/12/22 18:51:35;;;;;;;36.67;19.40;;;7.30;99.90;;;;;;6232348;22;20019;-76
2022/12/22 18:54:28;;;;;;;40.22;20.17;;;7.50;99.90;;;;;;6237274;22;20213;-78
2022/12/22 18:57:00;;;;;;;38.10;19.27;;;7.40;99.90;;;;;;6258202;22;20079;-75
2022/12/22 19:00:21;;;;;;;;;;;;;;;;;;;;;
2022/12/22 19:03:02;;;;;;;39.75;20.85;;;6.30;99.90;;;;;;6286025;22;20061;-77
2022/12/22 19:05:31;;;;;;;43.75;21.70;;;7.30;99.90;;;;;;6286266;22;20013;-76
2022/12/22 19:07:59;;;;;;;47.88;23.02;;;7.50;99.90;;;;;;6285904;22;20069;-77
2022/12/22 19:10:36;;;;;;;42.55;21.60;;;7.30;99.90;;;;;;6235453;22;20019;-77
2022/12/22 19:13:03;;;;;;;52.05;23.20;;;7.50;99.90;;;;;;6286222;22;20011;-78
2022/12/22 19:15:45;;;;;;;48.33;23.50;;;7.50;99.90;;;;;;6259463;22;20490;-77
2022/12/22 19:18:19;;;;;;;45.33;21.92;;;7.30;99.90;;;;;;6236468;22;20007;-76
2022/12/22 19:20:50;;;;;;;55.10;26.48;;;7.30;99.90;;;;;;6261366;22;20045;-76
2022/12/22 19:23:20;;;;;;;56.08;24.40;;;7.40;99.90;;;;;;6236138;22;20010;-77
2022/12/22 19:25:48;;;;;;;46.28;22.27;;;7.30;99.90;;;;;;6260208;22;20022;-77
2022/12/22 19:32:01;;;;;;;42.85;21.25;;;7.70;99.90;;;;;;6218670;23;20074;-77
2022/12/22 19:34:30;;;;;;;43.50;20.35;;;7.40;99.90;;;;;;6231415;22;20064;-78
2022/12/22 19:37:04;;;;;;;47.05;21.35;;;6.30;99.90;;;;;;6259448;22;20019;-79